Arka, Russia
Current Conditions -  °F | °C
As of 2:30 PM on Saturday 25 Oct 2014 (Local Time) from UHMM Reporting Station
Overcast Overcast  
Wind Chill: 14°   Ceiling: 20000
Heat Index: 14°   Visibility: 6mi
Dew Point:   Wind: 0mph
Humidity: 79%   Direction: NA
Pressure: 29.68"   Gusts: NA
Location:  60.08°N, 142.33°E
Report Text: UHMM 250430Z 00000MPS 9999 OVC200 M10/M13 Q1005 NOSIG RMKQFE739 88850545
Loading
Personal Weather Stations






























Interactive Weather Map
Tropical Storm Tracking
New forecast layout! Learn more

10-Day Weather Forecast

Advertisements
Track Severe Weather on mobile